Woodford, Vermont
Current Conditions -  °F | °C
As of 1:54 AM on Friday 28 Nov 2014 (Local Time) from KDDH Reporting Station
Overcast Overcast  
Wind Chill: 25°   Ceiling: 2700
Heat Index: 25°   Visibility: 9mi
Dew Point: 23°   Wind: 3mph
Humidity: 92%   Direction: 270°W
Pressure: 29.99"   Gusts: NA
Location:  42.9148°N, 73.1152°W
Report Text: KDDH 280654Z AUTO 27003KT 9SM FEW007 SCT017 OVC027 M04/M05 A2999 RMK AO2 SLP167 T10391050
Loading
Personal Weather Stations






























Interactive Weather Map New forecast layout! Learn more

10-Day Weather Forecast

Advertisements
Track Severe Weather on mobile